createdAt,value
2018-08-31T00:02:07.261Z,86.80
2018-08-31T00:04:49.783Z,86.53
2018-08-31T00:07:33.544Z,86.50
2018-08-31T00:12:44.153Z,86.39
2018-08-31T00:15:13.193Z,86.99
2018-08-31T00:17:43.095Z,87.59
2018-08-31T00:20:12.529Z,87.30
2018-08-31T00:22:40.969Z,87.18
2018-08-31T00:25:21.255Z,87.12
2018-08-31T00:28:00.931Z,86.76
2018-08-31T00:30:40.616Z,87.26
2018-08-31T00:33:20.016Z,87.33
2018-08-31T00:40:09.494Z,86.93
2018-08-31T00:42:51.269Z,87.42
2018-08-31T00:45:29.777Z,87.61
2018-08-31T00:47:59.152Z,87.79
2018-08-31T00:50:27.733Z,87.87
2018-08-31T00:52:56.457Z,88.20
2018-08-31T00:55:24.932Z,88.79
2018-08-31T00:57:53.837Z,88.72
2018-08-31T01:00:22.752Z,88.36
2018-08-31T01:02:51.040Z,89.27
2018-08-31T01:05:19.912Z,88.85
2018-08-31T01:07:48.901Z,88.91
2018-08-31T01:10:19.856Z,88.88
2018-08-31T01:12:48.343Z,89.17
2018-08-31T01:15:18.355Z,89.32
2018-08-31T01:17:46.973Z,89.80
2018-08-31T01:20:15.301Z,89.83
2018-08-31T01:22:43.710Z,90.39
2018-08-31T01:25:12.304Z,89.83
2018-08-31T01:27:41.293Z,89.99
2018-08-31T01:30:09.958Z,90.62
2018-08-31T01:32:38.295Z,90.77
2018-08-31T01:35:06.652Z,90.83
2018-08-31T01:37:35.097Z,90.79
2018-08-31T01:40:03.527Z,90.81
2018-08-31T01:42:31.745Z,90.74
2018-08-31T01:44:59.901Z,91.05
2018-08-31T01:47:28.192Z,90.56
2018-08-31T01:49:56.948Z,90.92
2018-08-31T01:52:25.104Z,90.50
2018-08-31T01:54:53.540Z,90.44
2018-08-31T01:57:22.178Z,89.97
2018-08-31T01:59:50.618Z,90.23
2018-08-31T02:02:19.700Z,90.28
2018-08-31T02:04:48.128Z,90.08
2018-08-31T02:07:16.243Z,89.81
2018-08-31T02:09:45.305Z,89.70
2018-08-31T02:12:13.904Z,89.41
2018-08-31T02:14:42.462Z,89.67
2018-08-31T02:17:11.248Z,89.15
2018-08-31T02:19:40.678Z,89.31
2018-08-31T02:22:09.307Z,89.87
2018-08-31T02:24:38.215Z,89.98
2018-08-31T02:27:06.323Z,90.16
2018-08-31T02:29:34.717Z,90.04
2018-08-31T02:32:02.951Z,90.63
2018-08-31T02:34:31.376Z,90.64
2018-08-31T02:37:00.028Z,90.61
2018-08-31T02:39:28.723Z,90.48
2018-08-31T02:41:57.436Z,90.05
2018-08-31T02:44:25.815Z,90.51
2018-08-31T02:46:54.029Z,90.56
2018-08-31T02:49:22.450Z,89.89
2018-08-31T02:51:51.173Z,90.32
2018-08-31T02:54:19.671Z,90.28
2018-08-31T02:56:48.346Z,90.08
2018-08-31T02:59:16.765Z,90.10
2018-08-31T03:04:25.387Z,90.23
2018-08-31T03:06:54.356Z,90.13
2018-08-31T03:09:22.487Z,90.27
2018-08-31T03:11:51.772Z,90.51
2018-08-31T03:14:19.888Z,90.30
2018-08-31T03:16:48.529Z,90.55
2018-08-31T03:19:16.844Z,90.50
2018-08-31T03:21:45.792Z,90.51
2018-08-31T03:24:14.508Z,90.53
2018-08-31T03:26:43.283Z,90.44
2018-08-31T03:29:12.496Z,90.68
2018-08-31T03:31:41.041Z,90.04
2018-08-31T03:34:09.763Z,90.22
2018-08-31T03:36:38.612Z,90.48
2018-08-31T03:39:09.010Z,89.99
2018-08-31T03:41:37.549Z,90.17
2018-08-31T03:44:06.193Z,90.21
2018-08-31T03:46:35.213Z,90.05
2018-08-31T03:49:03.693Z,90.46
2018-08-31T03:51:32.300Z,90.42
2018-08-31T03:54:00.433Z,90.77
2018-08-31T03:56:29.156Z,90.65
2018-08-31T03:58:57.941Z,91.04
2018-08-31T04:01:26.061Z,91.29
2018-08-31T04:03:54.585Z,91.52
2018-08-31T04:06:23.296Z,91.91
2018-08-31T04:08:51.494Z,92.14
2018-08-31T04:11:20.209Z,92.01
2018-08-31T04:13:48.320Z,92.11
2018-08-31T04:16:16.448Z,92.09
2018-08-31T04:18:44.816Z,92.70
2018-08-31T04:21:13.410Z,92.42
2018-08-31T04:23:41.664Z,92.46
2018-08-31T04:26:10.431Z,92.32
2018-08-31T04:28:38.951Z,92.16
2018-08-31T04:31:07.304Z,92.58
2018-08-31T04:33:35.783Z,92.50
2018-08-31T04:36:04.420Z,92.83
2018-08-31T04:38:32.879Z,92.24
2018-08-31T04:41:01.380Z,92.27
2018-08-31T04:43:30.324Z,92.19
2018-08-31T04:45:58.773Z,92.81
2018-08-31T04:48:27.482Z,92.87
2018-08-31T04:50:55.588Z,93.48
2018-08-31T04:53:24.345Z,93.36
2018-08-31T04:55:52.800Z,93.10
2018-08-31T04:58:21.044Z,92.88
2018-08-31T05:00:49.768Z,92.57
2018-08-31T05:03:18.188Z,92.38
2018-08-31T05:05:46.414Z,92.26
2018-08-31T05:08:15.349Z,92.46
2018-08-31T05:10:43.703Z,92.27
2018-08-31T05:13:12.404Z,92.41
2018-08-31T05:15:40.575Z,93.06
2018-08-31T05:18:09.573Z,92.38
2018-08-31T05:20:38.018Z,92.97
2018-08-31T05:23:06.215Z,93.58
2018-08-31T05:25:34.623Z,93.43
2018-08-31T05:28:03.278Z,93.65
2018-08-31T05:30:31.378Z,94.00
2018-08-31T05:33:00.065Z,93.82
2018-08-31T05:35:28.596Z,93.79
2018-08-31T05:37:56.969Z,93.39
2018-08-31T05:40:25.337Z,93.19
2018-08-31T05:42:53.925Z,93.41
2018-08-31T05:45:22.267Z,93.65
2018-08-31T05:47:50.720Z,94.20
2018-08-31T05:50:19.723Z,94.22
2018-08-31T05:52:48.431Z,93.77
2018-08-31T05:55:16.948Z,94.33
2018-08-31T05:57:45.560Z,94.25
2018-08-31T06:00:13.691Z,94.04
2018-08-31T06:02:41.798Z,94.46
2018-08-31T06:05:10.459Z,94.51
2018-08-31T06:07:38.944Z,94.94
2018-08-31T06:10:07.520Z,94.76
2018-08-31T06:12:35.992Z,94.78
2018-08-31T06:15:04.996Z,93.88
2018-08-31T06:17:33.660Z,93.87
2018-08-31T06:20:02.108Z,93.90
2018-08-31T06:22:30.489Z,93.68
2018-08-31T06:24:59.194Z,93.64
2018-08-31T06:27:33.329Z,93.38
2018-08-31T06:30:01.818Z,92.35
2018-08-31T06:32:33.175Z,92.21
2018-08-31T06:35:04.156Z,92.13
2018-08-31T06:37:35.566Z,91.40
2018-08-31T06:40:14.560Z,91.38
2018-08-31T06:42:43.055Z,91.64
2018-08-31T06:45:11.465Z,90.23
2018-08-31T06:47:40.959Z,90.10
2018-08-31T06:50:09.401Z,90.15
2018-08-31T06:52:37.752Z,89.13
2018-08-31T06:55:06.164Z,88.44
2018-08-31T06:57:35.030Z,87.35
2018-08-31T07:00:03.420Z,86.73
2018-08-31T07:02:31.760Z,85.24
2018-08-31T07:05:00.219Z,85.02
2018-08-31T07:07:28.561Z,84.47
2018-08-31T07:09:57.303Z,83.92
2018-08-31T07:12:28.420Z,83.63
2018-08-31T07:14:59.767Z,83.77
2018-08-31T07:17:28.149Z,85.06
2018-08-31T07:19:56.916Z,84.47
2018-08-31T07:22:25.781Z,84.09
2018-08-31T07:24:54.469Z,83.88
2018-08-31T07:27:22.912Z,84.10
2018-08-31T07:29:51.032Z,83.74
2018-08-31T07:32:19.832Z,83.63
2018-08-31T07:34:48.699Z,82.93
2018-08-31T07:37:17.165Z,81.73
2018-08-31T07:39:46.304Z,79.93
2018-08-31T07:42:14.898Z,78.03
2018-08-31T07:44:43.789Z,77.92
2018-08-31T07:47:12.257Z,77.80
2018-08-31T07:49:41.228Z,78.23
2018-08-31T07:52:09.832Z,78.87
2018-08-31T07:54:38.795Z,79.49
2018-08-31T07:57:07.684Z,79.55
2018-08-31T07:59:36.452Z,80.05
2018-08-31T08:02:04.573Z,79.68
2018-08-31T08:04:33.028Z,78.08
2018-08-31T08:07:01.893Z,76.58
2018-08-31T08:09:30.356Z,76.82
2018-08-31T08:11:59.219Z,77.36
2018-08-31T08:14:27.833Z,76.03
2018-08-31T08:16:56.293Z,74.12
2018-08-31T08:19:24.633Z,73.78
2018-08-31T08:21:52.795Z,72.03
2018-08-31T08:24:21.298Z,70.06
2018-08-31T08:26:50.172Z,71.09
2018-08-31T08:29:18.967Z,70.13
2018-08-31T08:31:47.827Z,68.39
2018-08-31T08:34:16.270Z,68.89
2018-08-31T08:36:45.578Z,68.82
2018-08-31T08:39:13.756Z,70.28
2018-08-31T08:41:42.542Z,69.79
2018-08-31T08:44:11.238Z,69.72
2018-08-31T08:46:41.388Z,68.13
2018-08-31T08:49:09.779Z,68.01
2018-08-31T08:51:37.916Z,67.84
2018-08-31T08:54:07.710Z,68.59
2018-08-31T08:56:37.147Z,68.38
2018-08-31T08:59:05.277Z,66.96
2018-08-31T09:01:33.984Z,65.67
2018-08-31T09:04:03.120Z,62.82
2018-08-31T09:06:37.583Z,62.87
2018-08-31T09:09:14.055Z,58.97
2018-08-31T09:11:48.300Z,59.20
2018-08-31T09:14:22.801Z,59.45
2018-08-31T09:16:56.968Z,59.98
2018-08-31T09:19:30.303Z,59.70
2018-08-31T09:22:04.441Z,58.34
2018-08-31T09:24:33.478Z,59.31
2018-08-31T09:27:02.085Z,60.71
2018-08-31T09:29:30.564Z,60.63
2018-08-31T09:31:58.710Z,59.04
2018-08-31T09:34:27.157Z,59.53
2018-08-31T09:36:56.212Z,59.39
2018-08-31T09:39:24.792Z,60.92
2018-08-31T09:41:53.483Z,62.04
2018-08-31T09:44:22.057Z,61.12
2018-08-31T09:46:50.232Z,60.80
2018-08-31T09:49:18.974Z,61.41
2018-08-31T09:51:47.445Z,61.76
2018-08-31T09:54:16.188Z,62.21
2018-08-31T09:56:44.925Z,60.91
2018-08-31T09:59:13.407Z,60.04
2018-08-31T10:01:42.159Z,60.75
2018-08-31T10:04:10.298Z,60.62
2018-08-31T10:06:38.728Z,60.37
2018-08-31T10:09:08.076Z,58.50
2018-08-31T10:11:36.228Z,58.59
2018-08-31T10:14:04.672Z,57.92
2018-08-31T10:16:32.802Z,58.29
2018-08-31T10:19:01.371Z,59.40
2018-08-31T10:21:29.849Z,57.50
2018-08-31T10:23:58.347Z,57.35
2018-08-31T10:26:26.930Z,56.59
2018-08-31T10:28:55.473Z,56.05
2018-08-31T10:31:24.141Z,56.19
2018-08-31T10:33:52.801Z,57.32
2018-08-31T10:36:21.316Z,56.35
2018-08-31T10:38:49.778Z,54.35
2018-08-31T10:41:17.904Z,53.63
2018-08-31T10:43:46.459Z,53.86
2018-08-31T10:46:15.199Z,53.35
2018-08-31T10:48:43.965Z,52.18
2018-08-31T10:51:12.408Z,50.19
2018-08-31T10:53:41.292Z,49.50
2018-08-31T10:56:09.732Z,46.08
2018-08-31T10:58:38.236Z,47.29
2018-08-31T11:01:06.616Z,47.36
2018-08-31T11:03:35.366Z,48.18
2018-08-31T11:06:04.289Z,45.90
2018-08-31T11:08:32.764Z,46.85
2018-08-31T11:11:00.952Z,47.03
2018-08-31T11:13:29.387Z,45.31
2018-08-31T11:15:57.851Z,45.63
2018-08-31T11:18:26.364Z,45.15
2018-08-31T11:20:54.829Z,44.67
2018-08-31T11:23:35.384Z,44.44
2018-08-31T11:26:03.907Z,45.21
2018-08-31T11:28:32.361Z,44.84
2018-08-31T11:31:00.823Z,44.62
2018-08-31T11:33:29.360Z,44.24
2018-08-31T11:35:58.315Z,44.43
2018-08-31T11:38:26.940Z,43.04
2018-08-31T11:40:55.528Z,43.57
2018-08-31T11:43:24.340Z,41.87
2018-08-31T11:45:53.529Z,41.09
2018-08-31T11:48:22.277Z,43.40
2018-08-31T11:50:51.208Z,43.10
2018-08-31T11:53:19.390Z,43.38
2018-08-31T11:55:47.849Z,44.13
2018-08-31T11:58:16.328Z,44.46
2018-08-31T12:00:45.078Z,44.27
2018-08-31T12:03:13.748Z,42.96
2018-08-31T12:05:42.151Z,43.24
2018-08-31T12:08:10.688Z,44.82
2018-08-31T12:10:39.360Z,44.91
2018-08-31T12:13:08.076Z,44.85
2018-08-31T12:15:37.005Z,44.96
2018-08-31T12:18:05.921Z,46.26
2018-08-31T12:20:34.072Z,47.09
2018-08-31T12:23:02.594Z,47.34
2018-08-31T12:25:31.056Z,46.66
2018-08-31T12:27:59.949Z,45.64
2018-08-31T12:30:28.397Z,47.00
2018-08-31T12:32:56.846Z,47.95
2018-08-31T12:35:25.113Z,48.36
2018-08-31T12:37:53.333Z,48.79
2018-08-31T12:40:21.459Z,49.31
2018-08-31T12:42:49.569Z,51.48
2018-08-31T12:45:18.005Z,52.83
2018-08-31T12:47:46.777Z,53.90
2018-08-31T12:50:15.401Z,55.56
2018-08-31T12:52:43.836Z,56.32
2018-08-31T12:55:12.500Z,57.34
2018-08-31T12:57:41.756Z,58.28
2018-08-31T13:00:10.199Z,58.42
2018-08-31T13:02:38.816Z,58.44
2018-08-31T13:05:07.720Z,58.85
2018-08-31T13:07:36.126Z,59.71
2018-08-31T13:10:04.245Z,58.60
2018-08-31T13:12:32.678Z,59.81
2018-08-31T13:15:01.131Z,59.09
2018-08-31T13:17:29.693Z,59.47
2018-08-31T13:19:58.473Z,60.30
2018-08-31T13:22:27.383Z,59.72
2018-08-31T13:24:56.207Z,60.02
2018-08-31T13:27:24.627Z,58.08
2018-08-31T13:29:53.081Z,57.92
2018-08-31T13:32:21.616Z,59.70
2018-08-31T13:34:50.061Z,59.14
2018-08-31T13:37:18.760Z,58.02
2018-08-31T13:39:47.721Z,58.71
2018-08-31T13:42:16.184Z,57.94
2018-08-31T13:44:44.856Z,57.88
2018-08-31T13:47:13.628Z,59.19
2018-08-31T13:49:42.064Z,58.70
2018-08-31T13:52:10.631Z,58.67
2018-08-31T13:54:38.984Z,58.70
2018-08-31T13:57:07.499Z,58.90
2018-08-31T13:59:36.192Z,58.00
2018-08-31T14:02:04.635Z,58.43
2018-08-31T14:04:32.737Z,58.44
2018-08-31T14:07:01.533Z,58.51
2018-08-31T14:09:30.010Z,58.22
2018-08-31T14:11:58.345Z,57.79
2018-08-31T14:14:27.236Z,57.61
2018-08-31T14:16:55.839Z,57.84
2018-08-31T14:19:24.597Z,57.57
2018-08-31T14:21:53.317Z,56.73
2018-08-31T14:24:21.468Z,56.51
2018-08-31T14:26:49.932Z,55.40
2018-08-31T14:29:18.718Z,54.96
2018-08-31T14:31:47.669Z,53.89
2018-08-31T14:34:15.804Z,53.86
2018-08-31T14:36:43.913Z,54.18
2018-08-31T14:39:12.425Z,53.79
2018-08-31T14:41:42.144Z,53.92
2018-08-31T14:44:10.729Z,54.62
2018-08-31T14:46:39.400Z,54.65
2018-08-31T14:49:07.946Z,55.14
2018-08-31T14:51:36.700Z,54.96
2018-08-31T14:54:05.057Z,53.40
2018-08-31T14:56:33.689Z,53.46
2018-08-31T14:59:02.165Z,52.30
2018-08-31T15:01:31.010Z,52.94
2018-08-31T15:03:59.722Z,52.13
2018-08-31T15:06:33.581Z,49.74
2018-08-31T15:09:07.650Z,50.29
2018-08-31T15:11:36.211Z,50.54
2018-08-31T15:14:04.441Z,51.93
2018-08-31T15:16:32.905Z,51.86
2018-08-31T15:19:01.700Z,52.06
2018-08-31T15:21:30.151Z,52.24
2018-08-31T15:23:59.092Z,52.48
2018-08-31T15:26:27.438Z,52.66
2018-08-31T15:28:56.076Z,52.26
2018-08-31T15:31:24.822Z,52.08
2018-08-31T15:33:53.932Z,51.46
2018-08-31T15:36:22.414Z,51.68
2018-08-31T15:38:51.156Z,53.01
2018-08-31T15:41:19.952Z,51.56
2018-08-31T15:43:48.417Z,51.64
2018-08-31T15:46:18.489Z,52.16
2018-08-31T15:48:47.228Z,51.73
2018-08-31T15:51:15.556Z,52.18
2018-08-31T15:53:44.298Z,52.26
2018-08-31T15:56:12.852Z,52.39
2018-08-31T15:58:42.419Z,52.72
2018-08-31T16:01:10.645Z,53.75
2018-08-31T16:03:39.111Z,54.22
2018-08-31T16:06:10.027Z,54.76
2018-08-31T16:08:38.464Z,54.81
2018-08-31T16:11:06.920Z,55.39
2018-08-31T16:13:35.443Z,55.16
2018-08-31T16:16:03.879Z,56.07
2018-08-31T16:18:32.509Z,55.92
2018-08-31T16:21:01.726Z,57.15
2018-08-31T16:23:30.519Z,55.99
2018-08-31T16:26:00.656Z,55.64
2018-08-31T16:28:42.342Z,55.81
2018-08-31T16:31:11.728Z,55.52
2018-08-31T16:33:40.231Z,55.11
2018-08-31T16:36:09.014Z,55.76
2018-08-31T16:38:38.211Z,55.60
2018-08-31T16:41:06.853Z,55.57
2018-08-31T16:43:35.339Z,56.55
2018-08-31T16:46:04.001Z,57.37
2018-08-31T16:48:32.468Z,56.43
2018-08-31T16:51:01.141Z,57.32
2018-08-31T16:53:29.547Z,56.52
2018-08-31T16:55:57.856Z,57.51
2018-08-31T16:58:26.356Z,57.26
2018-08-31T17:00:55.241Z,58.48
2018-08-31T17:03:24.101Z,58.10
2018-08-31T17:05:52.733Z,57.65
2018-08-31T17:08:21.128Z,58.31
2018-08-31T17:10:49.252Z,58.54
2018-08-31T17:13:17.671Z,59.89
2018-08-31T17:15:45.980Z,59.45
2018-08-31T17:18:14.101Z,59.62
2018-08-31T17:20:42.225Z,60.60
2018-08-31T17:23:11.006Z,60.83
2018-08-31T17:25:39.731Z,60.73
2018-08-31T17:28:13.527Z,60.56
2018-08-31T17:30:42.429Z,61.45
2018-08-31T17:33:16.768Z,61.57
2018-08-31T17:35:50.448Z,61.69
2018-08-31T17:38:18.802Z,61.54
2018-08-31T17:40:47.203Z,62.63
2018-08-31T17:43:15.632Z,63.15
2018-08-31T17:45:44.296Z,62.46
2018-08-31T17:48:12.696Z,63.34
2018-08-31T17:50:42.485Z,63.08
2018-08-31T17:53:11.152Z,63.23
2018-08-31T17:55:39.507Z,64.17
2018-08-31T17:58:08.116Z,64.14
2018-08-31T18:00:36.232Z,64.43
2018-08-31T18:03:04.696Z,63.71
2018-08-31T18:05:48.956Z,64.22
2018-08-31T18:08:17.667Z,64.85
2018-08-31T18:10:46.106Z,64.56
2018-08-31T18:13:14.601Z,65.14
2018-08-31T18:15:43.462Z,65.60
2018-08-31T18:18:12.229Z,65.14
2018-08-31T18:20:40.682Z,65.49
2018-08-31T18:23:09.195Z,65.97
2018-08-31T18:25:37.321Z,66.14
2018-08-31T18:28:06.408Z,66.36
2018-08-31T18:30:35.169Z,65.80
2018-08-31T18:33:03.379Z,66.22
2018-08-31T18:35:32.247Z,65.86
2018-08-31T18:38:01.637Z,66.29
2018-08-31T18:40:30.230Z,66.30
2018-08-31T18:42:58.690Z,66.43
2018-08-31T18:45:27.112Z,67.44
2018-08-31T18:47:55.413Z,67.37
2018-08-31T18:50:24.173Z,66.99
2018-08-31T18:52:52.307Z,67.18
2018-08-31T18:55:21.253Z,67.64
2018-08-31T18:57:54.892Z,68.30
2018-08-31T19:00:23.212Z,67.73
2018-08-31T19:02:53.231Z,67.85
2018-08-31T19:05:22.157Z,68.43
2018-08-31T19:07:50.277Z,68.37
2018-08-31T19:10:18.767Z,68.52
2018-08-31T19:12:47.221Z,68.14
2018-08-31T19:15:15.872Z,68.61
2018-08-31T19:17:44.265Z,68.83
2018-08-31T19:20:12.739Z,68.30
2018-08-31T19:22:42.256Z,69.16
2018-08-31T19:25:10.787Z,69.94
2018-08-31T19:27:39.614Z,69.77
2018-08-31T19:30:08.124Z,69.54
2018-08-31T19:32:36.237Z,69.83
2018-08-31T19:35:04.687Z,69.84
2018-08-31T19:37:33.052Z,69.64
2018-08-31T19:40:01.252Z,69.93
2018-08-31T19:42:29.373Z,69.76
2018-08-31T19:44:58.062Z,70.26
2018-08-31T19:47:26.700Z,70.07
2018-08-31T19:49:55.275Z,70.40
2018-08-31T19:52:23.384Z,70.52
2018-08-31T19:54:51.792Z,70.61
2018-08-31T19:57:20.138Z,70.37
2018-08-31T19:59:48.290Z,71.67
2018-08-31T20:02:16.839Z,71.33
2018-08-31T20:04:45.592Z,71.58
2018-08-31T20:07:14.374Z,71.79
2018-08-31T20:09:42.521Z,71.92
2018-08-31T20:12:10.637Z,71.92
2018-08-31T20:14:39.067Z,72.20
2018-08-31T20:17:07.227Z,71.97
2018-08-31T20:19:35.846Z,72.67
2018-08-31T20:22:04.337Z,72.65
2018-08-31T20:24:32.820Z,73.13
2018-08-31T20:27:01.230Z,73.70
2018-08-31T20:29:29.377Z,74.48
2018-08-31T20:31:58.013Z,74.34
2018-08-31T20:34:26.491Z,74.75
2018-08-31T20:36:55.472Z,74.50
2018-08-31T20:39:23.619Z,74.83
2018-08-31T20:41:52.353Z,75.27
2018-08-31T20:44:20.533Z,74.94
2018-08-31T20:46:48.719Z,75.77
2018-08-31T20:49:17.095Z,75.76
2018-08-31T20:51:45.968Z,75.57
2018-08-31T20:54:14.723Z,75.82
2018-08-31T20:56:43.268Z,76.91
2018-08-31T20:59:11.717Z,76.72
2018-08-31T21:01:40.192Z,77.12
2018-08-31T21:04:08.340Z,77.36
2018-08-31T21:06:36.703Z,77.78
2018-08-31T21:09:07.292Z,77.97
2018-08-31T21:11:35.770Z,77.76
2018-08-31T21:14:04.640Z,77.25
2018-08-31T21:16:33.179Z,78.04
2018-08-31T21:19:01.611Z,78.60
2018-08-31T21:21:30.089Z,78.01
2018-08-31T21:23:58.873Z,78.48
2018-08-31T21:26:27.548Z,78.56
2018-08-31T21:28:55.660Z,78.31
2018-08-31T21:31:24.192Z,78.98
2018-08-31T21:33:52.508Z,78.70
2018-08-31T21:44:03.551Z,80.21
2018-08-31T21:46:32.007Z,79.64
2018-08-31T21:49:00.580Z,80.17
2018-08-31T21:51:28.707Z,79.85
2018-08-31T21:53:57.708Z,80.71
2018-08-31T21:56:26.228Z,80.02
2018-08-31T21:58:54.968Z,80.61
2018-08-31T22:01:28.999Z,80.67
2018-08-31T22:03:57.425Z,80.28
2018-08-31T22:06:25.880Z,80.04
2018-08-31T22:08:54.880Z,80.13
2018-08-31T22:11:23.621Z,80.65
2018-08-31T22:13:52.540Z,80.22
2018-08-31T22:16:20.865Z,80.62
2018-08-31T22:18:48.992Z,80.92
2018-08-31T22:21:17.739Z,80.48
2018-08-31T22:23:46.279Z,81.71
2018-08-31T22:26:14.444Z,81.62
2018-08-31T22:28:42.788Z,81.91
2018-08-31T22:31:10.898Z,81.10
2018-08-31T22:33:39.874Z,80.80
2018-08-31T22:36:08.335Z,80.84
2018-08-31T22:38:36.786Z,81.27
2018-08-31T22:41:04.889Z,81.05
2018-08-31T22:43:39.111Z,81.25
2018-08-31T22:46:07.364Z,81.25
2018-08-31T22:48:36.005Z,81.05
2018-08-31T22:51:04.988Z,81.45
2018-08-31T22:53:34.037Z,81.34
2018-08-31T22:56:02.707Z,81.54
2018-08-31T22:58:31.669Z,81.83
2018-08-31T23:01:00.291Z,82.29
2018-08-31T23:03:28.952Z,82.18
2018-08-31T23:05:57.937Z,82.44
2018-08-31T23:08:26.704Z,82.13
2018-08-31T23:10:55.180Z,81.92
2018-08-31T23:13:23.804Z,82.15
2018-08-31T23:15:52.856Z,82.45
2018-08-31T23:18:21.303Z,82.53
2018-08-31T23:20:49.699Z,81.83
2018-08-31T23:23:23.576Z,81.77
2018-08-31T23:25:52.475Z,82.18
2018-08-31T23:28:22.206Z,82.55
2018-08-31T23:30:51.091Z,82.10
2018-08-31T23:33:19.834Z,81.81
2018-08-31T23:35:48.415Z,81.83
2018-08-31T23:38:16.813Z,81.93
2018-08-31T23:40:45.497Z,82.19
2018-08-31T23:43:13.966Z,82.35
2018-08-31T23:45:42.827Z,82.80
2018-08-31T23:48:11.316Z,82.00
2018-08-31T23:50:39.944Z,82.40
2018-08-31T23:53:08.115Z,82.77
2018-08-31T23:55:36.848Z,82.36
2018-08-31T23:58:05.292Z,82.84
